Time,TemperatureF,DewpointF,PressureIn,WindDirection,WindDirectionDegrees,WindSpeedMPH,WindSpeedGustMPH,Humidity,HourlyPrecipIn,Conditions,Clouds,dailyrainin,SoftwareType,DateUTC
2013-07-15 00:06:00,71.1,48.1,29.62,WSW,246,0.0,0.0,44,0.00,,,0.00,VWS V14.01,2013-07-15 04:06:00,
2013-07-15 00:21:00,70.9,48.5,29.62,WSW,246,0.0,0.0,45,0.00,,,0.00,VWS V14.01,2013-07-15 04:21:00,
2013-07-15 00:36:00,70.5,48.8,29.62,WSW,246,0.0,0.0,46,0.00,,,0.00,VWS V14.01,2013-07-15 04:36:00,
2013-07-15 00:51:00,70.3,49.2,29.62,WSW,246,0.0,0.0,47,0.00,,,0.00,VWS V14.01,2013-07-15 04:51:00,
2013-07-15 01:06:00,70.2,49.0,29.65,WSW,246,0.0,0.0,47,0.00,,,0.00,VWS V14.01,2013-07-15 05:06:00,
2013-07-15 01:21:00,70.0,50.0,29.65,WSW,246,0.0,0.0,49,0.00,,,0.00,VWS V14.01,2013-07-15 05:21:00,
2013-07-15 01:36:00,69.8,50.3,29.65,WSW,246,0.0,0.0,50,0.00,,,0.00,VWS V14.01,2013-07-15 05:36:00,
2013-07-15 01:51:00,69.8,50.9,29.65,WSW,246,0.0,0.0,51,0.00,,,0.00,VWS V14.01,2013-07-15 05:51:00,
2013-07-15 02:06:00,69.8,50.9,29.65,NW,315,0.0,0.0,51,0.00,,,0.00,VWS V14.01,2013-07-15 06:06:00,
2013-07-15 02:21:00,69.6,51.8,29.65,NW,326,0.0,0.0,53,0.00,,,0.00,VWS V14.01,2013-07-15 06:21:00,
2013-07-15 02:36:00,69.6,53.2,29.65,WNW,297,0.0,3.1,56,0.00,,,0.00,VWS V14.01,2013-07-15 06:36:00,
2013-07-15 02:51:00,69.4,53.6,29.65,WNW,297,0.0,0.0,57,0.00,,,0.00,VWS V14.01,2013-07-15 06:51:00,
2013-07-15 03:06:00,69.3,53.9,29.65,WNW,297,0.0,0.0,58,0.00,,,0.00,VWS V14.01,2013-07-15 07:06:00,
2013-07-15 03:21:00,69.1,53.7,29.65,WNW,297,0.0,0.0,58,0.00,,,0.00,VWS V14.01,2013-07-15 07:21:00,
2013-07-15 03:36:00,68.7,53.8,29.65,WNW,297,0.0,0.0,59,0.00,,,0.00,VWS V14.01,2013-07-15 07:36:00,
2013-07-15 03:51:00,68.5,54.1,29.65,WNW,297,0.0,0.0,60,0.00,,,0.00,VWS V14.01,2013-07-15 07:51:00,
2013-07-15 04:06:00,68.5,54.6,29.65,WNW,297,0.0,0.0,61,0.00,,,0.00,VWS V14.01,2013-07-15 08:06:00,
2013-07-15 04:21:00,68.4,54.4,29.65,WNW,297,0.0,0.0,61,0.00,,,0.00,VWS V14.01,2013-07-15 08:21:00,
2013-07-15 12:06:00,87.6,35.9,29.68,NNE,19,0.0,0.0,16,0.00,,,0.00,VWS V14.01,2013-07-15 16:06:00,
2013-07-15 12:21:00,88.2,34.7,29.68,North,0,0.0,0.0,15,0.00,,,0.00,VWS V14.01,2013-07-15 16:21:00,
2013-07-15 12:36:00,89.4,35.7,29.68,NNW,333,0.0,0.0,15,0.00,,,0.00,VWS V14.01,2013-07-15 16:36:00,
2013-07-15 13:06:00,90.1,36.3,29.68,East,87,0.0,0.0,15,0.00,,,0.00,VWS V14.01,2013-07-15 17:06:00,
2013-07-15 13:21:00,90.3,36.5,29.65,East,88,0.0,0.0,15,0.00,,,0.00,VWS V14.01,2013-07-15 17:21:00,
2013-07-15 13:36:00,90.3,36.5,29.65,NE,36,0.0,0.0,15,0.00,,,0.00,VWS V14.01,2013-07-15 17:36:00,
2013-07-15 13:51:00,90.9,36.9,29.65,NNW,339,0.0,0.0,15,0.00,,,0.00,VWS V14.01,2013-07-15 17:51:00,
2013-07-15 14:06:00,91.8,35.8,29.65,ENE,75,0.0,0.0,14,0.00,,,0.00,VWS V14.01,2013-07-15 18:06:00,
2013-07-15 14:21:00,92.1,36.1,29.65,NNW,342,0.0,0.0,14,0.00,,,0.00,VWS V14.01,2013-07-15 18:21:00,
2013-07-15 14:36:00,92.3,36.3,29.65,East,80,0.0,0.0,14,0.00,,,0.00,VWS V14.01,2013-07-15 18:36:00,
2013-07-15 14:51:00,92.5,36.4,29.62,North,350,0.0,0.0,14,0.00,,,0.00,VWS V14.01,2013-07-15 18:51:00,
2013-07-15 15:36:00,93.4,37.1,29.62,WNW,298,0.0,0.0,14,0.00,,,0.00,VWS V14.01,2013-07-15 19:36:00,
2013-07-15 15:51:00,91.9,36.0,29.62,NNW,335,0.0,0.0,14,0.00,,,0.00,VWS V14.01,2013-07-15 19:51:00,
2013-07-15 16:06:00,90.7,36.7,29.62,NNW,337,0.0,0.0,15,0.00,,,0.00,VWS V14.01,2013-07-15 20:06:00,
2013-07-15 16:21:00,90.9,36.9,29.62,NNW,334,0.0,0.0,15,0.00,,,0.00,VWS V14.01,2013-07-15 20:21:00,
2013-07-15 16:36:00,91.4,35.6,29.62,WNW,285,0.0,0.0,14,0.00,,,0.00,VWS V14.01,2013-07-15 20:36:00,
2013-07-15 16:51:00,90.3,36.5,29.59,WNW,289,0.0,0.0,15,0.00,,,0.00,VWS V14.01,2013-07-15 20:51:00,
2013-07-15 17:06:00,89.4,35.7,29.59,WNW,290,0.0,0.0,15,0.00,,,0.00,VWS V14.01,2013-07-15 21:06:00,
2013-07-15 17:36:00,88.5,35.0,29.59,WNW,291,0.0,0.0,15,0.00,,,0.00,VWS V14.01,2013-07-15 21:36:00,
2013-07-15 17:51:00,86.0,34.6,29.59,WNW,291,0.0,0.0,16,0.00,,,0.00,VWS V14.01,2013-07-15 21:51:00,
2013-07-15 18:06:00,84.4,33.3,29.59,WNW,292,0.0,0.0,16,0.00,,,0.00,VWS V14.01,2013-07-15 22:06:00,
2013-07-15 18:21:00,83.1,32.3,29.59,WNW,292,0.0,0.0,16,0.00,,,0.00,VWS V14.01,2013-07-15 22:21:00,
2013-07-15 18:36:00,82.8,32.0,29.59,WNW,292,0.0,0.0,16,0.00,,,0.00,VWS V14.01,2013-07-15 22:36:00,
2013-07-15 18:51:00,82.2,35.9,29.59,WNW,292,0.0,0.0,19,0.00,,,0.00,VWS V14.01,2013-07-15 22:51:00,
2013-07-15 19:06:00,82.0,37.0,29.59,WNW,292,0.0,0.0,20,0.00,,,0.00,VWS V14.01,2013-07-15 23:06:00,
2013-07-15 19:21:00,82.0,37.0,29.59,WNW,292,0.0,0.0,20,0.00,,,0.00,VWS V14.01,2013-07-15 23:21:00,
2013-07-15 19:51:00,81.3,36.5,29.59,WNW,292,0.0,0.0,20,0.00,,,0.00,VWS V14.01,2013-07-15 23:51:00,
2013-07-15 20:06:00,80.8,36.0,29.59,WNW,292,0.0,0.0,20,0.00,,,0.00,VWS V14.01,2013-07-16 00:06:00,
2013-07-15 20:36:00,79.0,36.9,29.59,WNW,292,0.0,0.0,22,0.00,,,0.00,VWS V14.01,2013-07-16 00:36:00,
2013-07-15 20:51:00,78.3,37.5,29.59,WNW,292,0.0,0.0,23,0.00,,,0.00,VWS V14.01,2013-07-16 00:51:00,
2013-07-15 21:06:00,77.5,37.9,29.59,WNW,292,0.0,0.0,24,0.00,,,0.00,VWS V14.01,2013-07-16 01:06:00,
2013-07-15 21:21:00,77.0,39.5,29.59,WNW,292,0.0,0.0,26,0.00,,,0.00,VWS V14.01,2013-07-16 01:21:00,
2013-07-15 21:36:00,76.3,41.7,29.59,WNW,292,0.0,0.0,29,0.00,,,0.00,VWS V14.01,2013-07-16 01:36:00,
2013-07-15 21:51:00,75.9,43.1,29.62,WNW,292,0.0,0.0,31,0.00,,,0.00,VWS V14.01,2013-07-16 01:51:00,
2013-07-15 22:06:00,75.6,43.7,29.62,WNW,292,0.0,0.0,32,0.00,,,0.00,VWS V14.01,2013-07-16 02:06:00,
2013-07-15 22:36:00,74.7,44.5,29.62,WNW,292,0.0,0.0,34,0.00,,,0.00,VWS V14.01,2013-07-16 02:36:00,
2013-07-15 23:21:00,73.8,48.0,29.65,WNW,292,0.0,0.0,40,0.00,,,0.00,VWS V14.01,2013-07-16 03:21:00,
2013-07-15 23:36:00,73.4,48.9,29.65,WNW,292,0.0,0.0,42,0.00,,,0.00,VWS V14.01,2013-07-16 03:36:00,